sensor_id;sensor_type;location;lat;lon;timestamp;temperature;humidity
28484;DHT22;15704;48.834;8.736;2023-08-30T00:01:11;11.60;99.90
28484;DHT22;15704;48.834;8.736;2023-08-30T00:03:38;11.60;99.90
28484;DHT22;15704;48.834;8.736;2023-08-30T00:06:06;11.60;99.90
28484;DHT22;15704;48.834;8.736;2023-08-30T00:08:33;11.60;99.90
28484;DHT22;15704;48.834;8.736;2023-08-30T00:11:01;11.70;99.90
28484;DHT22;15704;48.834;8.736;2023-08-30T00:13:32;11.70;99.90
28484;DHT22;15704;48.834;8.736;2023-08-30T00:16:00;11.70;99.90
28484;DHT22;15704;48.834;8.736;2023-08-30T00:18:29;11.70;99.90
28484;DHT22;15704;48.834;8.736;2023-08-30T00:20:56;11.80;99.90
28484;DHT22;15704;48.834;8.736;2023-08-30T00:23:24;11.80;99.90
28484;DHT22;15704;48.834;8.736;2023-08-30T00:25:50;11.80;99.90
28484;DHT22;15704;48.834;8.736;2023-08-30T00:28:17;12.00;99.90
28484;DHT22;15704;48.834;8.736;2023-08-30T00:30:44;12.00;99.90
28484;DHT22;15704;48.834;8.736;2023-08-30T00:33:11;12.00;99.90
28484;DHT22;15704;48.834;8.736;2023-08-30T00:35:38;12.10;99.90
28484;DHT22;15704;48.834;8.736;2023-08-30T00:38:04;12.00;99.90
28484;DHT22;15704;48.834;8.736;2023-08-30T00:40:38;12.00;99.90
28484;DHT22;15704;48.834;8.736;2023-08-30T00:43:07;12.00;99.90
28484;DHT22;15704;48.834;8.736;2023-08-30T00:45:35;12.00;99.90
28484;DHT22;15704;48.834;8.736;2023-08-30T00:48:04;11.90;99.90
28484;DHT22;15704;48.834;8.736;2023-08-30T00:50:32;11.90;99.90
28484;DHT22;15704;48.834;8.736;2023-08-30T00:52:59;11.90;99.90
28484;DHT22;15704;48.834;8.736;2023-08-30T00:55:29;11.80;99.90
28484;DHT22;15704;48.834;8.736;2023-08-30T00:57:55;11.70;99.90
28484;DHT22;15704;48.834;8.736;2023-08-30T01:00:22;11.70;99.90
28484;DHT22;15704;48.834;8.736;2023-08-30T01:02:49;11.60;99.90
28484;DHT22;15704;48.834;8.736;2023-08-30T01:05:16;11.60;99.90
28484;DHT22;15704;48.834;8.736;2023-08-30T01:07:44;11.50;99.90
28484;DHT22;15704;48.834;8.736;2023-08-30T01:10:11;11.50;99.90
28484;DHT22;15704;48.834;8.736;2023-08-30T01:12:47;11.40;99.90
28484;DHT22;15704;48.834;8.736;2023-08-30T01:15:19;11.40;99.90
28484;DHT22;15704;48.834;8.736;2023-08-30T01:17:48;11.30;99.90
28484;DHT22;15704;48.834;8.736;2023-08-30T01:20:16;11.30;99.90
28484;DHT22;15704;48.834;8.736;2023-08-30T01:22:59;11.30;99.90
28484;DHT22;15704;48.834;8.736;2023-08-30T01:25:49;11.30;99.90
28484;DHT22;15704;48.834;8.736;2023-08-30T01:28:21;11.30;99.90
28484;DHT22;15704;48.834;8.736;2023-08-30T01:30:49;11.30;99.90
28484;DHT22;15704;48.834;8.736;2023-08-30T01:33:16;11.30;99.90
28484;DHT22;15704;48.834;8.736;2023-08-30T01:35:45;11.20;99.90
28484;DHT22;15704;48.834;8.736;2023-08-30T01:38:14;11.20;99.90
28484;DHT22;15704;48.834;8.736;2023-08-30T01:40:42;11.20;99.90
28484;DHT22;15704;48.834;8.736;2023-08-30T01:43:10;11.20;99.90
28484;DHT22;15704;48.834;8.736;2023-08-30T01:45:42;11.20;99.90
28484;DHT22;15704;48.834;8.736;2023-08-30T01:48:15;11.20;99.90
28484;DHT22;15704;48.834;8.736;2023-08-30T01:50:43;11.20;99.90
28484;DHT22;15704;48.834;8.736;2023-08-30T01:53:12;11.20;99.90
28484;DHT22;15704;48.834;8.736;2023-08-30T01:55:39;11.10;99.90
28484;DHT22;15704;48.834;8.736;2023-08-30T01:58:07;11.10;99.90
28484;DHT22;15704;48.834;8.736;2023-08-30T02:00:35;11.10;99.90
28484;DHT22;15704;48.834;8.736;2023-08-30T02:03:13;11.10;99.90
28484;DHT22;15704;48.834;8.736;2023-08-30T02:05:50;11.10;99.90
28484;DHT22;15704;48.834;8.736;2023-08-30T02:08:19;11.10;99.90
28484;DHT22;15704;48.834;8.736;2023-08-30T02:10:52;11.10;99.90
28484;DHT22;15704;48.834;8.736;2023-08-30T02:13:26;11.00;99.90
28484;DHT22;15704;48.834;8.736;2023-08-30T02:15:56;11.00;99.90
28484;DHT22;15704;48.834;8.736;2023-08-30T02:18:26;11.00;99.90
28484;DHT22;15704;48.834;8.736;2023-08-30T02:20:53;11.00;99.90
28484;DHT22;15704;48.834;8.736;2023-08-30T02:23:25;11.00;99.90
28484;DHT22;15704;48.834;8.736;2023-08-30T02:25:54;11.00;99.90
28484;DHT22;15704;48.834;8.736;2023-08-30T02:28:21;10.90;99.90
28484;DHT22;15704;48.834;8.736;2023-08-30T02:30:48;11.00;99.90
28484;DHT22;15704;48.834;8.736;2023-08-30T02:33:14;11.00;99.90
28484;DHT22;15704;48.834;8.736;2023-08-30T02:35:41;11.00;99.90
28484;DHT22;15704;48.834;8.736;2023-08-30T02:38:08;11.00;99.90
28484;DHT22;15704;48.834;8.736;2023-08-30T02:40:35;11.00;99.90
28484;DHT22;15704;48.834;8.736;2023-08-30T02:43:02;11.10;99.90
28484;DHT22;15704;48.834;8.736;2023-08-30T02:45:29;11.10;99.90
28484;DHT22;15704;48.834;8.736;2023-08-30T02:47:56;11.10;99.90
28484;DHT22;15704;48.834;8.736;2023-08-30T02:50:26;11.10;99.90
28484;DHT22;15704;48.834;8.736;2023-08-30T02:52:52;11.20;99.90
28484;DHT22;15704;48.834;8.736;2023-08-30T02:55:19;11.20;99.90
28484;DHT22;15704;48.834;8.736;2023-08-30T02:57:46;11.30;99.90
28484;DHT22;15704;48.834;8.736;2023-08-30T03:00:14;11.30;99.90
28484;DHT22;15704;48.834;8.736;2023-08-30T03:02:41;11.30;99.90
28484;DHT22;15704;48.834;8.736;2023-08-30T03:05:08;11.40;99.90
28484;DHT22;15704;48.834;8.736;2023-08-30T03:07:35;11.40;99.90
28484;DHT22;15704;48.834;8.736;2023-08-30T03:10:01;11.50;99.90
28484;DHT22;15704;48.834;8.736;2023-08-30T03:12:30;11.50;99.90
28484;DHT22;15704;48.834;8.736;2023-08-30T03:14:56;11.50;99.90
28484;DHT22;15704;48.834;8.736;2023-08-30T03:17:23;11.60;99.90
28484;DHT22;15704;48.834;8.736;2023-08-30T03:19:52;11.70;99.90
28484;DHT22;15704;48.834;8.736;2023-08-30T03:22:19;11.70;99.90
28484;DHT22;15704;48.834;8.736;2023-08-30T03:24:46;11.80;99.90
28484;DHT22;15704;48.834;8.736;2023-08-30T03:27:13;11.80;99.90
28484;DHT22;15704;48.834;8.736;2023-08-30T03:29:40;11.80;99.90
28484;DHT22;15704;48.834;8.736;2023-08-30T03:32:07;11.90;99.90
28484;DHT22;15704;48.834;8.736;2023-08-30T03:34:33;11.90;99.90
28484;DHT22;15704;48.834;8.736;2023-08-30T03:37:00;11.90;99.90
28484;DHT22;15704;48.834;8.736;2023-08-30T03:39:27;11.90;99.90
28484;DHT22;15704;48.834;8.736;2023-08-30T03:41:53;12.00;99.90
28484;DHT22;15704;48.834;8.736;2023-08-30T03:44:20;12.00;99.90
28484;DHT22;15704;48.834;8.736;2023-08-30T03:46:47;12.00;99.90
28484;DHT22;15704;48.834;8.736;2023-08-30T03:49:14;12.00;99.90
28484;DHT22;15704;48.834;8.736;2023-08-30T03:51:41;12.00;99.90
28484;DHT22;15704;48.834;8.736;2023-08-30T03:54:08;12.00;99.90
28484;DHT22;15704;48.834;8.736;2023-08-30T03:56:40;12.00;99.90
28484;DHT22;15704;48.834;8.736;2023-08-30T03:59:06;12.00;99.90
28484;DHT22;15704;48.834;8.736;2023-08-30T04:01:34;12.00;99.90
28484;DHT22;15704;48.834;8.736;2023-08-30T04:04:01;12.00;99.90
28484;DHT22;15704;48.834;8.736;2023-08-30T04:06:28;12.00;99.90
28484;DHT22;15704;48.834;8.736;2023-08-30T04:08:54;11.90;99.90
28484;DHT22;15704;48.834;8.736;2023-08-30T04:11:22;12.00;99.90
28484;DHT22;15704;48.834;8.736;2023-08-30T04:13:48;12.00;99.90
28484;DHT22;15704;48.834;8.736;2023-08-30T04:16:15;11.90;99.90
28484;DHT22;15704;48.834;8.736;2023-08-30T04:18:42;11.90;99.90
28484;DHT22;15704;48.834;8.736;2023-08-30T04:21:09;11.90;99.90
28484;DHT22;15704;48.834;8.736;2023-08-30T04:23:36;11.90;99.90
28484;DHT22;15704;48.834;8.736;2023-08-30T04:26:02;11.90;99.90
28484;DHT22;15704;48.834;8.736;2023-08-30T04:28:29;11.90;99.90
28484;DHT22;15704;48.834;8.736;2023-08-30T04:30:56;11.90;99.90
28484;DHT22;15704;48.834;8.736;2023-08-30T04:33:24;11.90;99.90
28484;DHT22;15704;48.834;8.736;2023-08-30T04:35:53;11.90;99.90
28484;DHT22;15704;48.834;8.736;2023-08-30T04:38:20;11.90;99.90
28484;DHT22;15704;48.834;8.736;2023-08-30T04:40:47;11.90;99.90
28484;DHT22;15704;48.834;8.736;2023-08-30T04:43:15;11.90;99.90
28484;DHT22;15704;48.834;8.736;2023-08-30T04:45:42;11.90;99.90
28484;DHT22;15704;48.834;8.736;2023-08-30T04:48:11;12.00;99.90
28484;DHT22;15704;48.834;8.736;2023-08-30T04:50:39;12.00;99.90
28484;DHT22;15704;48.834;8.736;2023-08-30T04:53:05;12.00;99.90
28484;DHT22;15704;48.834;8.736;2023-08-30T04:55:32;12.00;99.90
28484;DHT22;15704;48.834;8.736;2023-08-30T04:57:59;12.00;99.90
28484;DHT22;15704;48.834;8.736;2023-08-30T05:00:26;12.10;99.90
28484;DHT22;15704;48.834;8.736;2023-08-30T05:02:52;12.10;99.90
28484;DHT22;15704;48.834;8.736;2023-08-30T05:05:19;12.20;99.90
28484;DHT22;15704;48.834;8.736;2023-08-30T05:07:46;12.20;99.90
28484;DHT22;15704;48.834;8.736;2023-08-30T05:10:13;12.30;99.90
28484;DHT22;15704;48.834;8.736;2023-08-30T05:12:40;12.30;99.90
28484;DHT22;15704;48.834;8.736;2023-08-30T05:15:09;12.40;99.90
28484;DHT22;15704;48.834;8.736;2023-08-30T05:17:36;12.40;99.90
28484;DHT22;15704;48.834;8.736;2023-08-30T05:20:03;12.50;99.90
28484;DHT22;15704;48.834;8.736;2023-08-30T05:22:30;12.50;99.90
28484;DHT22;15704;48.834;8.736;2023-08-30T05:24:57;12.60;99.90
28484;DHT22;15704;48.834;8.736;2023-08-30T05:27:24;12.70;99.90
28484;DHT22;15704;48.834;8.736;2023-08-30T05:29:51;12.70;99.90
28484;DHT22;15704;48.834;8.736;2023-08-30T05:32:18;12.80;99.90
28484;DHT22;15704;48.834;8.736;2023-08-30T05:34:45;12.90;99.90
28484;DHT22;15704;48.834;8.736;2023-08-30T05:37:12;13.00;99.90
28484;DHT22;15704;48.834;8.736;2023-08-30T05:39:38;13.00;99.90
28484;DHT22;15704;48.834;8.736;2023-08-30T05:42:05;13.10;99.90
28484;DHT22;15704;48.834;8.736;2023-08-30T05:44:32;13.10;99.90
28484;DHT22;15704;48.834;8.736;2023-08-30T05:46:59;13.20;99.90
28484;DHT22;15704;48.834;8.736;2023-08-30T05:49:25;13.20;99.90
28484;DHT22;15704;48.834;8.736;2023-08-30T05:51:52;13.30;99.90
28484;DHT22;15704;48.834;8.736;2023-08-30T05:54:19;13.30;99.90
28484;DHT22;15704;48.834;8.736;2023-08-30T05:56:46;13.40;99.90
28484;DHT22;15704;48.834;8.736;2023-08-30T05:59:12;13.40;99.90
28484;DHT22;15704;48.834;8.736;2023-08-30T06:01:39;13.40;99.90
28484;DHT22;15704;48.834;8.736;2023-08-30T06:04:06;13.50;99.90
28484;DHT22;15704;48.834;8.736;2023-08-30T06:06:33;13.50;99.90
28484;DHT22;15704;48.834;8.736;2023-08-30T06:08:59;13.50;99.90
28484;DHT22;15704;48.834;8.736;2023-08-30T06:11:26;13.60;99.90
28484;DHT22;15704;48.834;8.736;2023-08-30T06:13:53;13.50;99.90
28484;DHT22;15704;48.834;8.736;2023-08-30T06:16:20;13.50;99.90
28484;DHT22;15704;48.834;8.736;2023-08-30T06:18:47;13.50;99.90
28484;DHT22;15704;48.834;8.736;2023-08-30T06:21:13;13.50;99.90
28484;DHT22;15704;48.834;8.736;2023-08-30T06:23:40;13.60;99.90
28484;DHT22;15704;48.834;8.736;2023-08-30T06:26:07;13.70;99.90
28484;DHT22;15704;48.834;8.736;2023-08-30T06:28:34;13.80;99.90
28484;DHT22;15704;48.834;8.736;2023-08-30T06:31:03;13.90;99.90
28484;DHT22;15704;48.834;8.736;2023-08-30T06:33:30;14.10;99.90
28484;DHT22;15704;48.834;8.736;2023-08-30T06:35:57;14.20;99.90
28484;DHT22;15704;48.834;8.736;2023-08-30T06:38:24;14.30;99.90
28484;DHT22;15704;48.834;8.736;2023-08-30T06:40:50;14.50;99.90
28484;DHT22;15704;48.834;8.736;2023-08-30T06:43:17;14.60;99.90
28484;DHT22;15704;48.834;8.736;2023-08-30T06:45:44;14.60;99.90
28484;DHT22;15704;48.834;8.736;2023-08-30T06:48:12;14.80;99.90
28484;DHT22;15704;48.834;8.736;2023-08-30T06:50:39;14.90;99.90
28484;DHT22;15704;48.834;8.736;2023-08-30T06:53:06;15.00;99.90
28484;DHT22;15704;48.834;8.736;2023-08-30T06:55:33;15.10;99.90
28484;DHT22;15704;48.834;8.736;2023-08-30T06:58:02;15.40;99.90
28484;DHT22;15704;48.834;8.736;2023-08-30T07:00:29;15.50;99.90
28484;DHT22;15704;48.834;8.736;2023-08-30T07:02:56;15.70;99.90
28484;DHT22;15704;48.834;8.736;2023-08-30T07:05:23;15.80;99.90
28484;DHT22;15704;48.834;8.736;2023-08-30T07:07:50;15.80;99.90
28484;DHT22;15704;48.834;8.736;2023-08-30T07:10:16;15.90;99.90
28484;DHT22;15704;48.834;8.736;2023-08-30T07:12:43;16.00;99.90
28484;DHT22;15704;48.834;8.736;2023-08-30T07:15:11;16.20;99.90
28484;DHT22;15704;48.834;8.736;2023-08-30T07:17:38;16.30;99.90
28484;DHT22;15704;48.834;8.736;2023-08-30T07:20:20;16.40;99.90
28484;DHT22;15704;48.834;8.736;2023-08-30T07:22:47;16.60;99.90
28484;DHT22;15704;48.834;8.736;2023-08-30T07:25:14;17.00;99.90
28484;DHT22;15704;48.834;8.736;2023-08-30T07:27:41;17.10;99.90
28484;DHT22;15704;48.834;8.736;2023-08-30T07:30:08;17.20;99.90
28484;DHT22;15704;48.834;8.736;2023-08-30T07:32:35;17.40;99.90
28484;DHT22;15704;48.834;8.736;2023-08-30T07:35:03;17.40;99.90
28484;DHT22;15704;48.834;8.736;2023-08-30T07:37:30;17.20;99.90
28484;DHT22;15704;48.834;8.736;2023-08-30T07:39:57;17.20;99.90
28484;DHT22;15704;48.834;8.736;2023-08-30T07:42:23;17.30;99.90
28484;DHT22;15704;48.834;8.736;2023-08-30T07:44:50;17.40;99.90
28484;DHT22;15704;48.834;8.736;2023-08-30T07:47:17;17.30;99.90
28484;DHT22;15704;48.834;8.736;2023-08-30T07:49:44;17.40;99.90
28484;DHT22;15704;48.834;8.736;2023-08-30T07:52:10;17.30;99.90
28484;DHT22;15704;48.834;8.736;2023-08-30T07:54:38;17.50;99.90
28484;DHT22;15704;48.834;8.736;2023-08-30T07:57:05;17.50;99.90
28484;DHT22;15704;48.834;8.736;2023-08-30T07:59:36;17.40;99.90
28484;DHT22;15704;48.834;8.736;2023-08-30T08:02:04;17.30;99.90
28484;DHT22;15704;48.834;8.736;2023-08-30T08:04:34;17.50;99.90
28484;DHT22;15704;48.834;8.736;2023-08-30T08:07:02;17.60;99.90
28484;DHT22;15704;48.834;8.736;2023-08-30T08:09:31;17.70;99.90
28484;DHT22;15704;48.834;8.736;2023-08-30T08:11:58;17.90;99.90
28484;DHT22;15704;48.834;8.736;2023-08-30T08:14:25;17.90;99.90
28484;DHT22;15704;48.834;8.736;2023-08-30T08:16:52;18.10;99.90
28484;DHT22;15704;48.834;8.736;2023-08-30T08:19:19;18.10;99.90
28484;DHT22;15704;48.834;8.736;2023-08-30T08:21:51;18.20;99.90
28484;DHT22;15704;48.834;8.736;2023-08-30T08:24:20;18.20;99.90
28484;DHT22;15704;48.834;8.736;2023-08-30T08:26:47;18.20;99.90
28484;DHT22;15704;48.834;8.736;2023-08-30T08:29:14;18.10;99.90
28484;DHT22;15704;48.834;8.736;2023-08-30T08:31:41;18.00;99.90
28484;DHT22;15704;48.834;8.736;2023-08-30T08:34:09;18.10;99.90
28484;DHT22;15704;48.834;8.736;2023-08-30T08:36:38;18.10;99.90
28484;DHT22;15704;48.834;8.736;2023-08-30T08:39:05;17.90;99.90
28484;DHT22;15704;48.834;8.736;2023-08-30T08:41:40;18.00;99.90
28484;DHT22;15704;48.834;8.736;2023-08-30T08:44:09;18.10;99.90
28484;DHT22;15704;48.834;8.736;2023-08-30T08:46:38;18.20;99.90
28484;DHT22;15704;48.834;8.736;2023-08-30T08:49:12;18.30;99.90
28484;DHT22;15704;48.834;8.736;2023-08-30T08:51:41;18.40;99.90
28484;DHT22;15704;48.834;8.736;2023-08-30T08:54:09;18.50;99.90
28484;DHT22;15704;48.834;8.736;2023-08-30T08:56:37;18.60;99.90
28484;DHT22;15704;48.834;8.736;2023-08-30T08:59:05;18.70;99.90
28484;DHT22;15704;48.834;8.736;2023-08-30T09:01:33;18.90;99.90
28484;DHT22;15704;48.834;8.736;2023-08-30T09:04:06;18.90;99.90
28484;DHT22;15704;48.834;8.736;2023-08-30T09:06:38;18.90;99.90
28484;DHT22;15704;48.834;8.736;2023-08-30T09:09:07;19.00;99.90
28484;DHT22;15704;48.834;8.736;2023-08-30T09:11:35;18.70;99.90
28484;DHT22;15704;48.834;8.736;2023-08-30T09:14:17;18.70;99.90
28484;DHT22;15704;48.834;8.736;2023-08-30T09:16:55;18.90;99.90
28484;DHT22;15704;48.834;8.736;2023-08-30T09:19:22;19.00;99.90
28484;DHT22;15704;48.834;8.736;2023-08-30T09:21:53;19.40;99.90
28484;DHT22;15704;48.834;8.736;2023-08-30T09:24:21;19.80;99.90
28484;DHT22;15704;48.834;8.736;2023-08-30T09:26:50;19.60;99.90
28484;DHT22;15704;48.834;8.736;2023-08-30T09:29:18;19.30;99.90
28484;DHT22;15704;48.834;8.736;2023-08-30T09:31:45;18.50;99.90
28484;DHT22;15704;48.834;8.736;2023-08-30T09:34:12;18.40;99.90
28484;DHT22;15704;48.834;8.736;2023-08-30T09:36:40;18.10;99.90
28484;DHT22;15704;48.834;8.736;2023-08-30T09:39:09;18.20;99.90
28484;DHT22;15704;48.834;8.736;2023-08-30T09:41:45;17.90;99.90
28484;DHT22;15704;48.834;8.736;2023-08-30T09:44:16;18.00;99.90
28484;DHT22;15704;48.834;8.736;2023-08-30T09:46:45;18.10;99.90
28484;DHT22;15704;48.834;8.736;2023-08-30T09:49:17;17.90;99.90
28484;DHT22;15704;48.834;8.736;2023-08-30T09:51:44;17.90;99.90
28484;DHT22;15704;48.834;8.736;2023-08-30T09:56:49;17.60;99.90
28484;DHT22;15704;48.834;8.736;2023-08-30T09:59:19;17.40;99.90
28484;DHT22;15704;48.834;8.736;2023-08-30T10:01:47;17.60;99.90
28484;DHT22;15704;48.834;8.736;2023-08-30T10:04:19;17.40;99.90
28484;DHT22;15704;48.834;8.736;2023-08-30T10:06:46;17.50;99.90
28484;DHT22;15704;48.834;8.736;2023-08-30T10:09:15;17.60;99.90
28484;DHT22;15704;48.834;8.736;2023-08-30T10:11:45;17.60;99.90
28484;DHT22;15704;48.834;8.736;2023-08-30T10:14:13;17.60;99.90
28484;DHT22;15704;48.834;8.736;2023-08-30T10:16:45;17.90;99.90
28484;DHT22;15704;48.834;8.736;2023-08-30T10:19:14;17.70;99.90
28484;DHT22;15704;48.834;8.736;2023-08-30T10:21:45;17.80;99.90
28484;DHT22;15704;48.834;8.736;2023-08-30T10:24:20;17.80;99.90
28484;DHT22;15704;48.834;8.736;2023-08-30T10:27:03;17.90;99.90
28484;DHT22;15704;48.834;8.736;2023-08-30T10:29:33;18.10;99.90
28484;DHT22;15704;48.834;8.736;2023-08-30T10:32:05;18.10;99.90
28484;DHT22;15704;48.834;8.736;2023-08-30T10:34:33;17.90;99.90
28484;DHT22;15704;48.834;8.736;2023-08-30T10:37:02;17.80;99.90
28484;DHT22;15704;48.834;8.736;2023-08-30T10:39:36;17.90;99.90
28484;DHT22;15704;48.834;8.736;2023-08-30T10:42:09;18.30;99.90
28484;DHT22;15704;48.834;8.736;2023-08-30T10:44:57;18.60;99.90
28484;DHT22;15704;48.834;8.736;2023-08-30T10:47:40;18.60;99.90
28484;DHT22;15704;48.834;8.736;2023-08-30T10:50:09;18.60;99.90
28484;DHT22;15704;48.834;8.736;2023-08-30T10:52:37;18.60;99.90
28484;DHT22;15704;48.834;8.736;2023-08-30T10:57:35;18.50;99.90
28484;DHT22;15704;48.834;8.736;2023-08-30T11:00:07;18.60;99.90
28484;DHT22;15704;48.834;8.736;2023-08-30T11:02:37;18.80;99.90
28484;DHT22;15704;48.834;8.736;2023-08-30T11:05:06;18.70;99.90
28484;DHT22;15704;48.834;8.736;2023-08-30T11:07:33;18.80;99.90
28484;DHT22;15704;48.834;8.736;2023-08-30T11:10:00;18.90;99.90
28484;DHT22;15704;48.834;8.736;2023-08-30T11:12:27;18.90;99.90
28484;DHT22;15704;48.834;8.736;2023-08-30T11:14:54;19.20;99.90
28484;DHT22;15704;48.834;8.736;2023-08-30T11:17:21;19.30;99.90
28484;DHT22;15704;48.834;8.736;2023-08-30T11:19:51;19.90;99.90
28484;DHT22;15704;48.834;8.736;2023-08-30T11:22:23;19.90;99.90
28484;DHT22;15704;48.834;8.736;2023-08-30T11:24:50;19.70;99.90
28484;DHT22;15704;48.834;8.736;2023-08-30T11:27:18;19.50;99.90
28484;DHT22;15704;48.834;8.736;2023-08-30T11:29:45;19.30;99.90
28484;DHT22;15704;48.834;8.736;2023-08-30T11:32:12;19.40;99.90
28484;DHT22;15704;48.834;8.736;2023-08-30T11:34:38;19.20;99.90
28484;DHT22;15704;48.834;8.736;2023-08-30T11:37:05;19.10;99.90
28484;DHT22;15704;48.834;8.736;2023-08-30T11:39:34;19.00;99.90
28484;DHT22;15704;48.834;8.736;2023-08-30T11:42:03;19.30;99.90
28484;DHT22;15704;48.834;8.736;2023-08-30T11:44:45;19.30;99.90
28484;DHT22;15704;48.834;8.736;2023-08-30T11:47:26;19.20;99.90
28484;DHT22;15704;48.834;8.736;2023-08-30T11:49:55;19.70;99.90
28484;DHT22;15704;48.834;8.736;2023-08-30T11:52:23;20.00;99.90
28484;DHT22;15704;48.834;8.736;2023-08-30T11:54:51;20.20;99.90
28484;DHT22;15704;48.834;8.736;2023-08-30T11:57:19;20.20;99.90
28484;DHT22;15704;48.834;8.736;2023-08-30T11:59:46;19.20;99.90
28484;DHT22;15704;48.834;8.736;2023-08-30T12:02:15;19.00;99.90
28484;DHT22;15704;48.834;8.736;2023-08-30T12:04:44;18.90;99.90
28484;DHT22;15704;48.834;8.736;2023-08-30T12:07:24;18.80;99.90
28484;DHT22;15704;48.834;8.736;2023-08-30T12:10:03;18.90;99.90
28484;DHT22;15704;48.834;8.736;2023-08-30T12:12:30;18.80;99.90
28484;DHT22;15704;48.834;8.736;2023-08-30T12:14:57;18.90;99.90
28484;DHT22;15704;48.834;8.736;2023-08-30T12:17:24;18.70;99.90
28484;DHT22;15704;48.834;8.736;2023-08-30T12:19:58;18.70;99.90
28484;DHT22;15704;48.834;8.736;2023-08-30T12:22:38;18.90;99.90
28484;DHT22;15704;48.834;8.736;2023-08-30T12:27:43;19.30;99.90
28484;DHT22;15704;48.834;8.736;2023-08-30T12:30:10;19.60;99.90
28484;DHT22;15704;48.834;8.736;2023-08-30T12:32:36;20.00;99.90
28484;DHT22;15704;48.834;8.736;2023-08-30T12:35:03;20.10;99.90
28484;DHT22;15704;48.834;8.736;2023-08-30T12:37:30;20.00;99.90
28484;DHT22;15704;48.834;8.736;2023-08-30T12:39:57;20.10;99.90
28484;DHT22;15704;48.834;8.736;2023-08-30T12:42:24;20.00;99.90
28484;DHT22;15704;48.834;8.736;2023-08-30T12:44:51;19.80;99.90
28484;DHT22;15704;48.834;8.736;2023-08-30T12:47:17;19.60;99.90
28484;DHT22;15704;48.834;8.736;2023-08-30T12:49:44;19.60;99.90
28484;DHT22;15704;48.834;8.736;2023-08-30T12:52:11;19.80;99.90
28484;DHT22;15704;48.834;8.736;2023-08-30T12:54:37;19.90;99.90
28484;DHT22;15704;48.834;8.736;2023-08-30T12:57:04;19.50;99.90
28484;DHT22;15704;48.834;8.736;2023-08-30T12:59:31;19.50;99.90
28484;DHT22;15704;48.834;8.736;2023-08-30T13:01:58;19.00;99.90
28484;DHT22;15704;48.834;8.736;2023-08-30T13:04:37;19.00;99.90
28484;DHT22;15704;48.834;8.736;2023-08-30T13:07:23;18.80;99.90
28484;DHT22;15704;48.834;8.736;2023-08-30T13:09:53;19.00;99.90
28484;DHT22;15704;48.834;8.736;2023-08-30T13:12:23;19.30;99.90
28484;DHT22;15704;48.834;8.736;2023-08-30T13:14:53;19.30;99.90
28484;DHT22;15704;48.834;8.736;2023-08-30T13:17:25;19.40;99.90
28484;DHT22;15704;48.834;8.736;2023-08-30T13:19:54;19.40;99.90
28484;DHT22;15704;48.834;8.736;2023-08-30T13:22:23;19.70;99.90
28484;DHT22;15704;48.834;8.736;2023-08-30T13:24:50;19.60;99.90
28484;DHT22;15704;48.834;8.736;2023-08-30T13:27:18;19.40;99.90
28484;DHT22;15704;48.834;8.736;2023-08-30T13:29:45;19.40;99.90
28484;DHT22;15704;48.834;8.736;2023-08-30T13:32:12;19.20;99.90
28484;DHT22;15704;48.834;8.736;2023-08-30T13:34:38;19.20;99.90
28484;DHT22;15704;48.834;8.736;2023-08-30T13:37:05;19.60;99.90
28484;DHT22;15704;48.834;8.736;2023-08-30T13:39:32;19.70;99.90
28484;DHT22;15704;48.834;8.736;2023-08-30T13:41:59;19.70;99.90
28484;DHT22;15704;48.834;8.736;2023-08-30T13:44:26;19.90;99.90
28484;DHT22;15704;48.834;8.736;2023-08-30T13:46:52;20.10;99.90
28484;DHT22;15704;48.834;8.736;2023-08-30T13:49:19;19.90;99.90
28484;DHT22;15704;48.834;8.736;2023-08-30T13:51:46;20.00;99.90
28484;DHT22;15704;48.834;8.736;2023-08-30T13:54:13;20.30;99.90
28484;DHT22;15704;48.834;8.736;2023-08-30T13:56:40;20.10;99.90
28484;DHT22;15704;48.834;8.736;2023-08-30T13:59:08;20.00;99.90
28484;DHT22;15704;48.834;8.736;2023-08-30T14:01:35;20.00;99.90
28484;DHT22;15704;48.834;8.736;2023-08-30T14:04:02;19.90;99.90
28484;DHT22;15704;48.834;8.736;2023-08-30T14:06:31;19.90;99.90
28484;DHT22;15704;48.834;8.736;2023-08-30T14:08:58;19.80;99.90
28484;DHT22;15704;48.834;8.736;2023-08-30T14:11:25;19.70;99.90
28484;DHT22;15704;48.834;8.736;2023-08-30T14:13:53;19.60;99.90
28484;DHT22;15704;48.834;8.736;2023-08-30T14:16:21;19.70;99.90
28484;DHT22;15704;48.834;8.736;2023-08-30T14:18:53;19.90;99.90
28484;DHT22;15704;48.834;8.736;2023-08-30T14:21:20;19.90;99.90
28484;DHT22;15704;48.834;8.736;2023-08-30T14:23:46;20.10;99.90
28484;DHT22;15704;48.834;8.736;2023-08-30T14:26:13;20.10;99.90
28484;DHT22;15704;48.834;8.736;2023-08-30T14:28:40;20.20;99.90
28484;DHT22;15704;48.834;8.736;2023-08-30T14:31:08;20.20;99.90
28484;DHT22;15704;48.834;8.736;2023-08-30T14:33:36;20.20;99.90
28484;DHT22;15704;48.834;8.736;2023-08-30T14:36:08;20.20;99.90
28484;DHT22;15704;48.834;8.736;2023-08-30T14:38:35;20.40;99.90
28484;DHT22;15704;48.834;8.736;2023-08-30T14:41:03;20.30;99.90
28484;DHT22;15704;48.834;8.736;2023-08-30T14:43:30;20.30;99.90
28484;DHT22;15704;48.834;8.736;2023-08-30T14:46:05;20.10;99.90
28484;DHT22;15704;48.834;8.736;2023-08-30T14:48:34;20.00;99.90
28484;DHT22;15704;48.834;8.736;2023-08-30T14:51:04;19.80;99.90
28484;DHT22;15704;48.834;8.736;2023-08-30T14:53:31;19.40;99.90
28484;DHT22;15704;48.834;8.736;2023-08-30T14:55:58;19.40;99.90
28484;DHT22;15704;48.834;8.736;2023-08-30T14:58:25;19.40;99.90
28484;DHT22;15704;48.834;8.736;2023-08-30T15:00:53;19.30;99.90
28484;DHT22;15704;48.834;8.736;2023-08-30T15:03:20;19.40;99.90
28484;DHT22;15704;48.834;8.736;2023-08-30T15:05:53;19.40;99.90
28484;DHT22;15704;48.834;8.736;2023-08-30T15:08:21;19.40;99.90
28484;DHT22;15704;48.834;8.736;2023-08-30T15:10:48;19.50;99.90
28484;DHT22;15704;48.834;8.736;2023-08-30T15:13:15;19.80;99.90
28484;DHT22;15704;48.834;8.736;2023-08-30T15:15:42;19.90;99.90
28484;DHT22;15704;48.834;8.736;2023-08-30T15:18:09;20.00;99.90
28484;DHT22;15704;48.834;8.736;2023-08-30T15:20:38;20.00;99.90
28484;DHT22;15704;48.834;8.736;2023-08-30T15:23:04;19.90;99.90
28484;DHT22;15704;48.834;8.736;2023-08-30T15:25:31;19.90;99.90
28484;DHT22;15704;48.834;8.736;2023-08-30T15:27:58;19.90;99.90
28484;DHT22;15704;48.834;8.736;2023-08-30T15:30:25;19.90;99.90
28484;DHT22;15704;48.834;8.736;2023-08-30T15:32:51;19.70;99.90
28484;DHT22;15704;48.834;8.736;2023-08-30T15:35:18;19.80;99.90
28484;DHT22;15704;48.834;8.736;2023-08-30T15:37:45;19.90;99.90
28484;DHT22;15704;48.834;8.736;2023-08-30T15:40:12;19.70;99.90
28484;DHT22;15704;48.834;8.736;2023-08-30T15:42:39;19.90;99.90
28484;DHT22;15704;48.834;8.736;2023-08-30T15:45:06;19.90;99.90